Aeroporto :
LOGIN :

Iscrizione | Disclaimer

   EN    FR    IT 

 










Sommario :    VFR   VFR Marginale   IFR   IFR Intensivo   IFR Molto Intensivo
Visibilità : 
Base nubi : 
>= 8 km
>= 3000ft
5 / 8 km
1000 / 3000 ft
1500m / 5 km
500 / 1000 ft
800 / 1500m
200 / 500 ft
< 800m
< 200 ft
Simboli :   Temporali  Nebbia  Neve Forte  Precipitazioni Forti  Vento > 20 kt
SIGMETs :   Varie  Temporali  Ghiacco  Turbolenza  Onda orograficha  Ceneri Vulcaniche







- Altitudine del aeroporto : 659 ft
- Codice IATA : LYN
- Carte del aeroporto


LFLY - Lyon Bron

ULTIMO METAR :
  • 181530Z AUTO 19012KT 160V220 CAVOK 31/10 Q1016 NOSIG

METARs OBSOLETI :
  • 181500Z AUTO 20010KT 150V230 CAVOK 31/11 Q1016 NOSIG
  • 181430Z AUTO 16011KT 130V200 CAVOK 31/11 Q1016 NOSIG
  • 181400Z AUTO 16011KT 120V190 CAVOK 31/12 Q1016 NOSIG
  • 181330Z AUTO 17010KT 140V200 CAVOK 30/11 Q1016 NOSIG
  • 181300Z AUTO 16010KT 120V200 CAVOK 30/13 Q1016 NOSIG

TAF TAF LFLY
Valido dal 18 a 12 ore il 19 a 12 ore UTC


181100Z 1812/1912 18010KT CAVOK
BECMG 1903/1905 VRB03KT
ATIS : +33 4 72 15 87 96
Nessun NOTAM noto per questo aeroporto.
1 SIGMET conosciuto per la FIR Marseille (LFMM) :
 
Temporali affogati
LFMM SIGMET 6 VALID 181510/181700 LFPW
LFMM MARSEILLE FIR/UIR EMBD TS OBS WI N4245 E00945 - N4115 E00945 - N4115 E00800 - N3900 E00800 - N3900 E00630 - N4200 E00645 - N4245 E00945 TOP FL380 STNR NC=



MetMap, La meteo Aeronautica in un colpo d'occhio ! - Copyright ORBIFLY Dicembre 2007 - Disclaimer

ORBIFLY MET'MAP TEAM :

Programmazione e sviluppo : Alexandra Zaïnal
Concezione e sviluppo : Baudouin d'Aumeries
Co-Programmazione e sviluppo : Marc-Olivier Méhu
Supporto tecnico e logistico : Manuel Goepfert
Aiuto per la traduzione : Arnaldo La Scala

Contatto : metmap@orbifly.com




FONTI E CREDITI :

   NOAA